createdAt,value
2023-03-06T00:02:48.240Z,4.20
2023-03-06T00:05:51.036Z,4.09
2023-03-06T00:08:54.435Z,4.12
2023-03-06T00:11:57.222Z,4.09
2023-03-06T00:14:59.937Z,4.01
2023-03-06T00:18:06.514Z,3.94
2023-03-06T00:21:09.422Z,3.96
2023-03-06T00:24:12.093Z,3.97
2023-03-06T00:27:15.214Z,3.92
2023-03-06T00:30:21.193Z,3.83
2023-03-06T00:33:24.040Z,3.75
2023-03-06T00:36:29.006Z,3.52
2023-03-06T00:39:31.878Z,3.20
2023-03-06T00:42:34.717Z,3.33
2023-03-06T00:45:37.708Z,3.42
2023-03-06T00:48:40.601Z,3.33
2023-03-06T00:51:43.359Z,3.26
2023-03-06T00:54:46.049Z,3.13
2023-03-06T00:57:48.987Z,3.04
2023-03-06T01:00:51.815Z,2.51
2023-03-06T01:03:54.719Z,2.02
2023-03-06T01:06:57.596Z,1.90
2023-03-06T01:10:00.572Z,1.90
2023-03-06T01:13:03.398Z,2.21
2023-03-06T01:16:12.621Z,2.42
2023-03-06T01:19:16.892Z,2.51
2023-03-06T01:22:20.815Z,2.52
2023-03-06T01:25:25.185Z,2.38
2023-03-06T01:28:27.915Z,2.21
2023-03-06T01:31:31.644Z,2.07
2023-03-06T01:34:34.496Z,2.12
2023-03-06T01:37:38.218Z,2.11
2023-03-06T01:40:41.446Z,2.02
2023-03-06T01:43:46.479Z,1.91
2023-03-06T01:46:49.323Z,1.78
2023-03-06T01:49:52.351Z,1.77
2023-03-06T01:52:59.908Z,1.85
2023-03-06T01:56:02.911Z,1.83
2023-03-06T01:59:07.644Z,1.76
2023-03-06T02:02:12.886Z,1.72
2023-03-06T02:05:15.849Z,1.72
2023-03-06T02:08:21.857Z,1.61
2023-03-06T02:11:25.151Z,1.46
2023-03-06T02:14:29.390Z,1.51
2023-03-06T02:17:34.967Z,1.45
2023-03-06T02:20:44.612Z,1.34
2023-03-06T02:23:56.236Z,1.43
2023-03-06T02:27:01.310Z,1.46
2023-03-06T02:30:11.105Z,1.63
2023-03-06T02:33:16.318Z,1.70
2023-03-06T02:36:19.064Z,1.62
2023-03-06T02:39:28.358Z,1.63
2023-03-06T02:42:31.493Z,1.66
2023-03-06T02:45:36.286Z,1.56
2023-03-06T02:48:39.190Z,1.41
2023-03-06T02:51:42.050Z,1.46
2023-03-06T02:54:44.886Z,1.47
2023-03-06T02:57:47.896Z,1.47
2023-03-06T03:00:51.050Z,1.42
2023-03-06T03:03:55.277Z,1.55
2023-03-06T03:06:58.248Z,1.65
2023-03-06T03:10:01.560Z,1.63
2023-03-06T03:13:05.193Z,1.71
2023-03-06T03:16:16.420Z,1.79
2023-03-06T03:19:20.321Z,1.83
2023-03-06T03:22:23.197Z,1.85
2023-03-06T03:25:26.580Z,1.76
2023-03-06T03:28:32.098Z,1.88
2023-03-06T03:31:34.880Z,1.96
2023-03-06T03:34:38.649Z,2.01
2023-03-06T03:37:41.999Z,2.00
2023-03-06T03:40:45.229Z,1.89
2023-03-06T03:43:48.640Z,1.82
2023-03-06T03:46:51.527Z,1.88
2023-03-06T03:49:57.605Z,1.92
2023-03-06T03:53:01.023Z,2.00
2023-03-06T03:56:04.686Z,2.01
2023-03-06T03:59:10.575Z,2.06
2023-03-06T04:02:21.968Z,1.96
2023-03-06T04:05:42.569Z,1.78
2023-03-06T04:08:47.958Z,1.89
2023-03-06T04:11:51.083Z,1.98
2023-03-06T04:14:54.575Z,2.13
2023-03-06T04:17:58.174Z,2.10
2023-03-06T04:21:03.532Z,1.99
2023-03-06T04:24:07.340Z,1.97
2023-03-06T04:27:10.844Z,1.99
2023-03-06T04:30:13.859Z,2.08
2023-03-06T04:33:17.744Z,2.26
2023-03-06T04:36:32.671Z,2.42
2023-03-06T04:39:40.885Z,2.51
2023-03-06T04:42:43.647Z,2.59
2023-03-06T04:45:46.511Z,2.72
2023-03-06T04:48:49.355Z,2.80
2023-03-06T04:51:52.092Z,2.89
2023-03-06T04:54:54.789Z,2.94
2023-03-06T04:57:57.654Z,2.91
2023-03-06T05:01:00.446Z,2.85
2023-03-06T05:04:03.399Z,2.85
2023-03-06T05:07:06.126Z,2.89
2023-03-06T05:10:12.959Z,2.87
2023-03-06T05:13:15.797Z,2.86
2023-03-06T05:16:18.898Z,2.66
2023-03-06T05:19:21.756Z,2.41
2023-03-06T05:22:24.762Z,2.37
2023-03-06T05:25:27.483Z,2.31
2023-03-06T05:28:30.343Z,2.15
2023-03-06T05:31:33.268Z,2.31
2023-03-06T05:34:36.009Z,2.39
2023-03-06T05:37:38.791Z,2.60
2023-03-06T05:40:44.005Z,2.64
2023-03-06T05:43:46.764Z,2.64
2023-03-06T05:46:50.896Z,2.69
2023-03-06T05:49:53.605Z,2.69
2023-03-06T05:52:56.395Z,2.67
2023-03-06T05:56:02.023Z,2.73
2023-03-06T05:59:04.870Z,2.60
2023-03-06T06:02:08.174Z,2.69
2023-03-06T06:05:13.066Z,2.80
2023-03-06T06:08:16.269Z,3.01
2023-03-06T06:11:20.898Z,3.11
2023-03-06T06:14:23.695Z,3.13
2023-03-06T06:17:26.493Z,3.11
2023-03-06T06:20:29.177Z,3.14
2023-03-06T06:23:31.998Z,3.19
2023-03-06T06:26:34.945Z,3.25
2023-03-06T06:29:37.993Z,3.28
2023-03-06T06:32:40.768Z,3.26
2023-03-06T06:35:43.553Z,3.17
2023-03-06T06:38:46.331Z,3.25
2023-03-06T06:42:05.665Z,3.28
2023-03-06T06:45:13.167Z,3.34
2023-03-06T06:48:17.805Z,3.26
2023-03-06T06:51:22.762Z,3.19
2023-03-06T06:54:25.761Z,3.37
2023-03-06T06:57:28.510Z,3.56
2023-03-06T07:00:31.277Z,3.43
2023-03-06T07:03:34.650Z,3.68
2023-03-06T07:06:37.502Z,3.63
2023-03-06T07:09:40.497Z,3.87
2023-03-06T07:12:43.793Z,4.00
2023-03-06T07:15:46.738Z,4.18
2023-03-06T07:18:49.532Z,4.30
2023-03-06T07:21:52.352Z,4.34
2023-03-06T07:24:55.126Z,4.12
2023-03-06T07:27:57.961Z,4.14
2023-03-06T07:31:00.786Z,4.03
2023-03-06T07:34:05.008Z,3.98
2023-03-06T07:37:07.938Z,3.92
2023-03-06T07:40:12.491Z,3.94
2023-03-06T07:43:19.484Z,4.19
2023-03-06T07:46:29.907Z,4.52
2023-03-06T07:49:35.067Z,4.66
2023-03-06T07:52:38.279Z,4.77
2023-03-06T07:55:41.709Z,4.92
2023-03-06T07:58:45.933Z,5.11
2023-03-06T08:01:48.769Z,5.13
2023-03-06T08:04:53.504Z,5.20
2023-03-06T08:07:56.279Z,5.03
2023-03-06T08:10:58.954Z,5.15
2023-03-06T08:14:01.825Z,5.34
2023-03-06T08:17:04.762Z,5.56
2023-03-06T08:20:08.642Z,5.76
2023-03-06T08:23:12.117Z,5.87
2023-03-06T08:26:24.230Z,6.11
2023-03-06T08:29:28.171Z,6.08
2023-03-06T08:32:31.014Z,6.48
2023-03-06T08:35:33.894Z,6.81
2023-03-06T08:38:36.804Z,7.04
2023-03-06T08:41:40.552Z,7.29
2023-03-06T08:44:43.408Z,7.24
2023-03-06T08:47:46.185Z,7.59
2023-03-06T08:50:49.361Z,7.53
2023-03-06T08:53:52.902Z,6.98
2023-03-06T08:56:55.684Z,7.37
2023-03-06T08:59:58.726Z,7.77
2023-03-06T09:03:01.466Z,7.51
2023-03-06T09:06:04.315Z,7.47
2023-03-06T09:09:08.317Z,7.97
2023-03-06T09:12:11.169Z,8.56
2023-03-06T09:15:14.336Z,8.73
2023-03-06T09:18:17.058Z,8.79
2023-03-06T09:21:23.259Z,8.99
2023-03-06T09:24:26.127Z,9.20
2023-03-06T09:27:29.069Z,9.30
2023-03-06T09:30:31.963Z,10.02
2023-03-06T09:33:34.887Z,9.98
2023-03-06T09:36:54.986Z,9.61
2023-03-06T09:39:59.309Z,9.98
2023-03-06T09:43:02.187Z,10.33
2023-03-06T09:46:24.568Z,10.47
2023-03-06T09:49:49.037Z,9.47
2023-03-06T09:53:16.454Z,9.70
2023-03-06T09:56:30.244Z,9.51
2023-03-06T09:59:33.630Z,9.32
2023-03-06T10:02:44.749Z,9.35
2023-03-06T10:05:55.369Z,9.48
2023-03-06T10:09:15.329Z,9.40
2023-03-06T10:12:28.643Z,9.43
2023-03-06T10:15:38.713Z,9.66
2023-03-06T10:18:41.682Z,9.76
2023-03-06T10:21:55.705Z,9.76
2023-03-06T10:25:16.411Z,9.92
2023-03-06T10:28:25.233Z,9.86
2023-03-06T10:31:28.894Z,9.83
2023-03-06T10:34:37.685Z,10.30
2023-03-06T10:37:40.354Z,9.98
2023-03-06T10:41:01.021Z,10.24
2023-03-06T10:44:03.918Z,10.09
2023-03-06T10:47:29.518Z,10.09
2023-03-06T10:50:32.392Z,10.47
2023-03-06T10:53:35.272Z,10.44
2023-03-06T10:56:40.760Z,10.45
2023-03-06T10:59:58.371Z,10.56
2023-03-06T11:03:16.372Z,10.80
2023-03-06T11:06:37.064Z,10.47
2023-03-06T11:09:40.273Z,10.30
2023-03-06T11:12:44.316Z,10.14
2023-03-06T11:16:25.646Z,10.21
2023-03-06T11:19:29.866Z,10.58
2023-03-06T11:22:33.033Z,10.94
2023-03-06T11:25:50.538Z,10.76
2023-03-06T11:29:17.796Z,10.77
2023-03-06T11:32:24.294Z,10.62
2023-03-06T11:35:35.902Z,10.87
2023-03-06T11:38:50.543Z,11.35
2023-03-06T11:42:20.799Z,12.10
2023-03-06T11:45:45.079Z,11.37
2023-03-06T11:49:26.323Z,11.05
2023-03-06T11:52:44.590Z,10.60
2023-03-06T11:56:02.360Z,10.13
2023-03-06T11:59:42.299Z,9.86
2023-03-06T12:03:04.315Z,9.32
2023-03-06T12:06:09.713Z,9.36
2023-03-06T12:09:12.572Z,9.10
2023-03-06T12:12:27.516Z,8.94
2023-03-06T12:15:51.238Z,9.00
2023-03-06T12:18:56.735Z,8.70
2023-03-06T12:22:21.399Z,8.42
2023-03-06T12:25:32.907Z,8.51
2023-03-06T12:28:54.658Z,8.89
2023-03-06T12:32:14.983Z,9.08
2023-03-06T12:35:23.550Z,9.45
2023-03-06T12:38:49.634Z,10.21
2023-03-06T12:42:23.492Z,10.63
2023-03-06T12:45:33.266Z,10.17
2023-03-06T12:48:39.068Z,10.02
2023-03-06T12:51:44.612Z,10.00
2023-03-06T12:54:47.695Z,10.35
2023-03-06T12:57:50.850Z,10.35
2023-03-06T13:01:04.186Z,10.40
2023-03-06T13:04:20.169Z,10.68
2023-03-06T13:07:29.412Z,10.41
2023-03-06T13:10:34.776Z,10.99
2023-03-06T13:13:48.488Z,10.51
2023-03-06T13:16:51.724Z,10.52
2023-03-06T13:20:13.300Z,10.10
2023-03-06T13:23:42.745Z,9.67
2023-03-06T13:26:45.438Z,9.41
2023-03-06T13:29:50.972Z,9.31
2023-03-06T13:32:55.023Z,9.16
2023-03-06T13:35:59.324Z,8.93
2023-03-06T13:39:13.886Z,8.86
2023-03-06T13:42:26.632Z,8.83
2023-03-06T13:45:46.072Z,8.71
2023-03-06T13:49:08.844Z,8.57
2023-03-06T13:52:55.924Z,8.63
2023-03-06T13:56:28.914Z,9.20
2023-03-06T14:00:16.662Z,9.44
2023-03-06T14:03:40.596Z,9.65
2023-03-06T14:07:07.329Z,9.25
2023-03-06T14:10:24.928Z,9.37
2023-03-06T14:13:50.774Z,9.09
2023-03-06T14:16:53.927Z,9.13
2023-03-06T14:20:01.768Z,9.26
2023-03-06T14:23:27.914Z,9.28
2023-03-06T14:26:40.931Z,8.91
2023-03-06T14:29:44.654Z,9.04
2023-03-06T14:32:50.083Z,9.10
2023-03-06T14:36:00.759Z,9.34
2023-03-06T14:39:29.718Z,9.21
2023-03-06T14:42:32.986Z,9.59
2023-03-06T14:45:35.879Z,9.55
2023-03-06T14:48:44.416Z,9.34
2023-03-06T14:51:52.434Z,9.26
2023-03-06T14:54:55.571Z,8.85
2023-03-06T14:58:13.609Z,8.74
2023-03-06T15:01:21.763Z,8.54
2023-03-06T15:04:30.509Z,8.59
2023-03-06T15:07:34.045Z,8.68
2023-03-06T15:10:37.567Z,8.75
2023-03-06T15:13:40.554Z,8.71
2023-03-06T15:16:43.397Z,8.57
2023-03-06T15:19:54.334Z,8.58
2023-03-06T15:22:57.066Z,8.56
2023-03-06T15:26:03.705Z,8.62
2023-03-06T15:29:10.300Z,8.47
2023-03-06T15:32:25.611Z,8.33
2023-03-06T15:35:34.661Z,8.36
2023-03-06T15:38:42.801Z,8.42
2023-03-06T15:41:46.500Z,8.40
2023-03-06T15:44:53.221Z,8.42
2023-03-06T15:47:56.135Z,8.41
2023-03-06T15:50:59.020Z,8.19
2023-03-06T15:54:11.820Z,8.26
2023-03-06T15:57:35.414Z,8.36
2023-03-06T16:00:40.216Z,8.53
2023-03-06T16:03:43.604Z,8.50
2023-03-06T16:06:46.574Z,8.47
2023-03-06T16:09:49.548Z,8.37
2023-03-06T16:12:56.674Z,8.44
2023-03-06T16:15:59.612Z,8.37
2023-03-06T16:19:06.067Z,8.26
2023-03-06T16:22:10.651Z,8.29
2023-03-06T16:25:14.615Z,8.12
2023-03-06T16:28:18.100Z,8.03
2023-03-06T16:31:21.057Z,8.10
2023-03-06T16:34:24.288Z,8.13
2023-03-06T16:37:27.070Z,8.08
2023-03-06T16:40:38.062Z,7.93
2023-03-06T16:43:40.851Z,7.71
2023-03-06T16:46:46.090Z,7.55
2023-03-06T16:49:50.021Z,7.54
2023-03-06T16:52:54.702Z,7.58
2023-03-06T16:55:57.523Z,7.43
2023-03-06T16:59:00.309Z,7.31
2023-03-06T17:02:07.574Z,7.36
2023-03-06T17:05:11.806Z,7.48
2023-03-06T17:08:14.777Z,7.40
2023-03-06T17:11:20.381Z,7.47
2023-03-06T17:14:23.165Z,7.49
2023-03-06T17:17:26.048Z,7.48
2023-03-06T17:20:29.109Z,7.52
2023-03-06T17:23:32.181Z,7.50
2023-03-06T17:26:40.293Z,7.48
2023-03-06T17:29:43.590Z,7.57
2023-03-06T17:32:46.441Z,7.65
2023-03-06T17:35:50.636Z,7.58
2023-03-06T17:38:58.203Z,7.55
2023-03-06T17:42:01.459Z,7.57
2023-03-06T17:45:05.172Z,7.66
2023-03-06T17:48:08.036Z,7.47
2023-03-06T17:51:11.821Z,7.55
2023-03-06T17:54:14.703Z,7.53
2023-03-06T17:57:17.681Z,7.56
2023-03-06T18:00:21.261Z,7.64
2023-03-06T18:03:24.354Z,7.69
2023-03-06T18:06:30.259Z,7.49
2023-03-06T18:09:33.059Z,6.98
2023-03-06T18:12:36.396Z,6.86
2023-03-06T18:15:41.106Z,6.81
2023-03-06T18:18:45.026Z,6.74
2023-03-06T18:21:48.084Z,6.66
2023-03-06T18:24:52.246Z,6.55
2023-03-06T18:27:55.193Z,6.47
2023-03-06T18:30:57.988Z,6.47
2023-03-06T18:34:03.217Z,6.46
2023-03-06T18:37:06.319Z,6.46
2023-03-06T18:40:09.982Z,6.49
2023-03-06T18:43:13.027Z,6.53
2023-03-06T18:46:16.165Z,6.39
2023-03-06T18:49:20.073Z,6.38
2023-03-06T18:52:23.682Z,6.49
2023-03-06T18:55:26.716Z,6.47
2023-03-06T18:58:30.115Z,6.53
2023-03-06T19:01:34.096Z,6.64
2023-03-06T19:04:38.135Z,6.72
2023-03-06T19:07:42.208Z,6.72
2023-03-06T19:10:47.100Z,6.75
2023-03-06T19:13:50.417Z,6.81
2023-03-06T19:16:53.502Z,6.83
2023-03-06T19:19:56.938Z,6.77
2023-03-06T19:23:00.328Z,6.80
2023-03-06T19:26:03.943Z,6.83
2023-03-06T19:29:07.476Z,6.88
2023-03-06T19:32:10.666Z,6.85
2023-03-06T19:35:13.784Z,6.82
2023-03-06T19:38:16.782Z,6.77
2023-03-06T19:41:19.733Z,6.73
2023-03-06T19:44:24.546Z,6.70
2023-03-06T19:47:28.617Z,6.61
2023-03-06T19:50:31.840Z,6.56
2023-03-06T19:53:38.973Z,6.60
2023-03-06T19:56:42.428Z,6.59
2023-03-06T19:59:52.173Z,6.67
2023-03-06T20:02:55.944Z,6.61
2023-03-06T20:05:59.035Z,6.59
2023-03-06T20:09:04.712Z,6.53
2023-03-06T20:12:08.331Z,6.42
2023-03-06T20:15:11.645Z,6.46
2023-03-06T20:18:15.200Z,6.52
2023-03-06T20:21:18.261Z,6.48
2023-03-06T20:24:21.118Z,6.17
2023-03-06T20:27:24.159Z,5.76
2023-03-06T20:30:36.663Z,5.90
2023-03-06T20:33:41.117Z,6.03
2023-03-06T20:36:44.574Z,6.13
2023-03-06T20:39:47.960Z,5.80
2023-03-06T20:42:51.069Z,5.61
2023-03-06T20:45:59.398Z,5.39
2023-03-06T20:49:02.590Z,5.35
2023-03-06T20:52:05.581Z,5.36
2023-03-06T20:55:09.116Z,5.39
2023-03-06T20:58:12.036Z,5.63
2023-03-06T21:01:26.821Z,5.61
2023-03-06T21:04:29.958Z,5.57
2023-03-06T21:07:32.837Z,5.60
2023-03-06T21:10:38.084Z,5.56
2023-03-06T21:13:40.969Z,5.58
2023-03-06T21:16:44.678Z,5.43
2023-03-06T21:19:47.671Z,5.64
2023-03-06T21:22:52.077Z,5.79
2023-03-06T21:25:54.841Z,5.79
2023-03-06T21:28:59.056Z,5.71
2023-03-06T21:32:01.855Z,5.80
2023-03-06T21:35:04.977Z,5.89
2023-03-06T21:38:08.293Z,5.92
2023-03-06T21:41:16.824Z,5.95
2023-03-06T21:44:19.888Z,5.99
2023-03-06T21:47:22.647Z,6.05
2023-03-06T21:50:26.127Z,6.11
2023-03-06T21:53:28.828Z,6.09
2023-03-06T21:56:33.641Z,6.15
2023-03-06T21:59:37.880Z,6.18
2023-03-06T22:02:40.789Z,6.22
2023-03-06T22:05:44.615Z,6.13
2023-03-06T22:08:47.720Z,5.85
2023-03-06T22:11:50.478Z,5.67
2023-03-06T22:14:53.244Z,5.54
2023-03-06T22:17:55.991Z,5.60
2023-03-06T22:20:59.246Z,5.85
2023-03-06T22:24:01.974Z,6.00
2023-03-06T22:27:04.993Z,6.03
2023-03-06T22:30:08.515Z,5.93
2023-03-06T22:33:11.583Z,6.00
2023-03-06T22:36:15.828Z,5.95
2023-03-06T22:39:19.074Z,5.95
2023-03-06T22:42:21.909Z,6.04
2023-03-06T22:45:24.857Z,5.98
2023-03-06T22:48:28.034Z,6.09
2023-03-06T22:51:31.107Z,6.12
2023-03-06T22:54:33.886Z,6.17
2023-03-06T22:57:36.628Z,6.20
2023-03-06T23:00:39.449Z,6.06
2023-03-06T23:03:44.849Z,5.86
2023-03-06T23:06:47.770Z,5.68
2023-03-06T23:09:50.602Z,5.56
2023-03-06T23:13:12.147Z,5.74
2023-03-06T23:16:34.053Z,5.92
2023-03-06T23:19:55.749Z,5.96
2023-03-06T23:23:17.212Z,6.06
2023-03-06T23:26:22.390Z,6.18
2023-03-06T23:29:25.474Z,6.18
2023-03-06T23:32:28.354Z,6.11
2023-03-06T23:35:33.617Z,6.19
2023-03-06T23:38:37.230Z,6.14
2023-03-06T23:41:40.090Z,6.17
2023-03-06T23:44:42.966Z,6.12
2023-03-06T23:47:45.900Z,6.05
2023-03-06T23:50:48.825Z,6.04
2023-03-06T23:54:00.062Z,6.17
2023-03-06T23:57:02.789Z,6.12
